Fairview, WV (26570)

1:51 PM EDT on April 27, 2015 (GMT -0400)
Little Shannon Run | | Change Station
CLOSE
Current Station
Personal Weather Station
Location: Mount Morris, PA
Elevation: 1004 ft
Nearby Weather Stations

Elev 1004 ft 39.74 °N, 80.12 °W | Updated 23 seconds ago

Overcast
Overcast
53.4 °F
Feels Like 53.4 °F
N
3.2
Wind Variable Wind from SSW

Today
High -- | Low -- °F
--% Chance of Precip.
Yesterday
High -- | Low -- °F
Precip. -- in
6:27 AM 8:10 PM
Waxing Gibbous, 66% visible
Pressure 29.90 in
Visibility 10.0 miles
Clouds Mostly Cloudy 4300 ft
Overcast 5500 ft
Dew Point 36 °F
Humidity 52%
Rainfall 0.00 in
Snow Depth Not available.
UV 3 out of 12
Pollen 6.80 out of 12
Air Quality Not available.
Flu Activity Sporadic
METAR KMGW 271653Z 32006KT 10SM BKN043 OVC055 10/M01 A2989 RMK AO2 SLP125 T01001011

More Conditions Fewer Conditions

Pressure 29.90 in
Visibility 10.0 miles
Clouds Mostly Cloudy 4300 ft
Overcast 5500 ft
Dew Point 36 °F
Humidity 52%
Rainfall 0.00 in
Snow Depth Not available.
UV 3 out of 12
Pollen 6.80 out of 12
Air Quality Not available.
Flu Activity Sporadic
METAR KMGW 271653Z 32006KT 10SM BKN043 OVC055 10/M01 A2989 RMK AO2 SLP125 T01001011

More Conditions Fewer Conditions

10-Day Weather Forecast

Almanac

Astronomy

Apr. 27, 2015 Rise Set
Actual Time
Civil Twilight
Nautical Twilight
Astronomical Twilight
Moon
Length of Visible Light
Length of Day
Tomorrow will be .
, % of the Moon is Illuminated

Today's Extremes

State Highs State Lows

Community

WunderPhotos

Upload Photos

1,817,367 photos uploaded!

WunderBlogs® & News

Nearby

Air Quality

  Air Quality AQ Index Pollutant
Not available.

Snow Depth

Station Depth Elevation

Earthquake Activity

City Distance Mag. Time & Date
Minimum magnitude displayed is 2.5.

Coastal Water Temperatures

Place Temperature

Stations

Nearby Weather Stations

Station Location Temp. Windchill Dew Point Humidity Wind Precip. Elev Updated Type